Main page
METAR-TAF:

METAR-TAF

Airports :

Kuwait City, Kuwait

Kuwait International Airport

latitude: 29-13N, longitude: 047-59E, elevation: 55 m

Current weather observation

The report was made 1 hour and 5 minutes ago, at 05:00 UTC
Calm wind
Temperature 24°C
Humidity 50%
Pressure 1014 hPa
Visibility 10 km or more
no clouds below 1500 m and no cumulonimbus

METAR: OKBK 240500Z 00000KT CAVOK 24/13 Q1014 NOSIG

Time: 09:05 (06:05 UTC)

Forecast

The report was made 1 hour and 20 minutes ago, at 04:45 UTC
Forecast valid from 24 at 06 UTC to 25 at 12 UTC
Wind 3 kt from variable directions
Visibility: 7000 m
Clear sky
Becoming
from 24 at 08 UTC to 24 at 10 UTC
Wind 10 kt from the Southeast

TAF: OKBK 240445Z 2406/2512 VRB03KT 7000 SKC BECMG 2408/2410 14010KT

Weather observations and forecasts of more than 4000 airports (METAR and TAF reports).

The available stations are represented by yellow and red dots on the map.

Hover mouse over dot to see the name of the station.

Then click to see weather observations and forecasts.

To change the map : click on the green buttons with a black cross to zoom in, on the green button with a dash to zoom out, or on the green arrows for adjacent maps.


METAR-TAF: